createdAt,value
2022-11-15T00:00:18.204Z,16.90
2022-11-15T00:03:03.008Z,17.60
2022-11-15T00:05:48.860Z,18.10
2022-11-15T00:08:33.708Z,18.20
2022-11-15T00:11:18.794Z,17.00
2022-11-15T00:14:03.701Z,18.40
2022-11-15T00:16:48.470Z,19.30
2022-11-15T00:19:33.744Z,17.90
2022-11-15T00:22:18.542Z,18.10
2022-11-15T00:25:04.044Z,20.50
2022-11-15T00:27:48.666Z,19.80
2022-11-15T00:30:33.560Z,19.90
2022-11-15T00:33:18.102Z,20.90
2022-11-15T00:36:05.570Z,19.10
2022-11-15T00:38:50.109Z,21.30
2022-11-15T00:41:35.048Z,20.60
2022-11-15T00:44:19.618Z,19.50
2022-11-15T00:47:04.373Z,21.60
2022-11-15T00:49:48.989Z,21.00
2022-11-15T00:52:33.583Z,21.90
2022-11-15T00:55:19.487Z,19.90
2022-11-15T00:58:04.360Z,20.20
2022-11-15T01:00:49.089Z,22.50
2022-11-15T01:03:34.856Z,24.00
2022-11-15T01:06:19.913Z,25.00
2022-11-15T01:09:04.665Z,26.10
2022-11-15T01:11:49.342Z,22.50
2022-11-15T01:14:34.264Z,20.80
2022-11-15T01:17:18.939Z,23.90
2022-11-15T01:20:04.297Z,26.70
2022-11-15T01:22:49.176Z,23.50
2022-11-15T01:25:34.005Z,28.60
2022-11-15T01:28:18.852Z,27.80
2022-11-15T01:31:06.646Z,26.00
2022-11-15T01:33:51.368Z,26.10
2022-11-15T01:36:35.801Z,25.50
2022-11-15T01:39:20.867Z,25.80
2022-11-15T01:42:05.431Z,28.60
2022-11-15T01:44:52.218Z,26.10
2022-11-15T01:50:30.765Z,29.10
2022-11-15T01:53:16.556Z,28.40
2022-11-15T01:56:07.018Z,29.10
2022-11-15T01:58:56.100Z,31.70
2022-11-15T02:01:41.124Z,28.20
2022-11-15T02:04:34.445Z,27.20
2022-11-15T02:07:22.192Z,31.60
2022-11-15T02:10:14.402Z,30.30
2022-11-15T02:13:01.061Z,31.70
2022-11-15T02:19:27.171Z,33.70
2022-11-15T02:22:46.473Z,26.70
2022-11-15T02:25:57.523Z,29.00
2022-11-15T02:29:10.752Z,28.30
2022-11-15T02:32:16.178Z,28.50
2022-11-15T02:35:20.344Z,27.10
2022-11-15T02:38:36.368Z,27.90
2022-11-15T02:41:32.041Z,27.80
2022-11-15T02:44:30.897Z,27.70
2022-11-15T02:47:18.114Z,29.10
2022-11-15T02:52:50.220Z,29.20
2022-11-15T02:55:36.684Z,32.50
2022-11-15T02:58:49.094Z,29.60
2022-11-15T03:01:42.776Z,28.20
2022-11-15T03:04:49.034Z,33.30
2022-11-15T03:07:46.267Z,31.10
2022-11-15T03:10:43.093Z,29.90
2022-11-15T03:13:50.826Z,31.40
2022-11-15T03:16:40.221Z,32.20
2022-11-15T03:19:48.411Z,31.20
2022-11-15T03:22:41.124Z,32.40
2022-11-15T03:25:29.124Z,33.50
2022-11-15T03:28:21.072Z,33.10
2022-11-15T03:31:27.637Z,32.50
2022-11-15T03:34:36.449Z,35.60
2022-11-15T03:37:25.256Z,33.20
2022-11-15T03:40:11.146Z,35.20
2022-11-15T03:43:06.358Z,35.20
2022-11-15T03:46:05.916Z,38.40
2022-11-15T03:48:55.283Z,36.40
2022-11-15T03:51:40.816Z,34.10
2022-11-15T03:54:25.570Z,34.20
2022-11-15T03:57:10.162Z,32.70
2022-11-15T03:59:54.995Z,38.00
2022-11-15T04:02:39.692Z,37.30
2022-11-15T04:05:25.130Z,38.80
2022-11-15T04:08:09.575Z,35.90
2022-11-15T04:10:54.177Z,34.70
2022-11-15T04:13:38.957Z,36.00
2022-11-15T04:16:23.484Z,38.50
2022-11-15T04:19:26.903Z,39.50
2022-11-15T04:22:30.226Z,37.20
2022-11-15T04:25:18.405Z,37.00
2022-11-15T04:28:05.598Z,35.30
2022-11-15T04:30:50.041Z,39.80
2022-11-15T04:33:35.110Z,37.20
2022-11-15T04:36:39.904Z,35.40
2022-11-15T04:39:24.372Z,38.10
2022-11-15T04:42:10.421Z,37.70
2022-11-15T04:44:56.329Z,38.10
2022-11-15T04:47:44.371Z,33.40
2022-11-15T04:50:29.182Z,34.00
2022-11-15T04:53:14.008Z,38.80
2022-11-15T04:55:58.661Z,36.30
2022-11-15T04:58:43.468Z,36.10
2022-11-15T05:01:27.964Z,37.80
2022-11-15T05:04:21.839Z,34.60
2022-11-15T05:07:06.708Z,34.10
2022-11-15T05:09:51.303Z,32.50
2022-11-15T05:12:36.204Z,36.20
2022-11-15T05:15:20.989Z,35.90
2022-11-15T05:18:05.709Z,36.30
2022-11-15T05:20:50.208Z,38.60
2022-11-15T05:23:35.039Z,37.20
2022-11-15T05:26:19.879Z,34.50
2022-11-15T05:29:04.849Z,36.50
2022-11-15T05:31:49.868Z,40.00
2022-11-15T05:34:34.509Z,37.10
2022-11-15T05:37:19.257Z,37.20
2022-11-15T05:40:04.326Z,41.10
2022-11-15T05:42:49.013Z,40.10
2022-11-15T05:45:35.294Z,39.50
2022-11-15T05:48:20.327Z,37.70
2022-11-15T05:51:07.315Z,38.30
2022-11-15T05:53:53.731Z,42.30
2022-11-15T05:59:24.365Z,42.00
2022-11-15T06:02:09.488Z,33.10
2022-11-15T06:04:54.187Z,35.50
2022-11-15T06:07:39.023Z,38.40
2022-11-15T06:10:23.548Z,38.10
2022-11-15T06:13:08.098Z,38.40
2022-11-15T06:15:57.033Z,40.70
2022-11-15T06:18:41.638Z,35.60
2022-11-15T06:21:28.331Z,35.10
2022-11-15T06:24:13.103Z,36.10
2022-11-15T06:26:58.054Z,32.80
2022-11-15T06:29:42.855Z,33.80
2022-11-15T06:32:31.062Z,31.10
2022-11-15T06:35:15.954Z,28.90
2022-11-15T06:42:28.445Z,32.50
2022-11-15T06:45:13.502Z,32.40
2022-11-15T06:47:59.276Z,40.40
2022-11-15T06:50:51.204Z,38.40
2022-11-15T06:53:36.101Z,34.50
2022-11-15T06:56:21.126Z,29.30
2022-11-15T06:59:05.888Z,29.60
2022-11-15T07:01:50.590Z,32.60
2022-11-15T07:13:43.128Z,33.30
2022-11-15T07:39:01.314Z,29.00
2022-11-15T07:46:14.225Z,31.10
2022-11-15T07:48:58.947Z,28.80
2022-11-15T07:56:08.003Z,25.00
2022-11-15T07:58:52.853Z,29.50
2022-11-15T08:05:14.802Z,28.00
2022-11-15T08:12:32.309Z,25.60
2022-11-15T08:28:39.405Z,33.00
2022-11-15T08:40:14.225Z,31.30
2022-11-15T08:43:02.750Z,26.40
2022-11-15T08:45:47.688Z,30.90
2022-11-15T08:57:30.831Z,33.80
2022-11-15T09:09:10.134Z,27.90
2022-11-15T09:16:22.362Z,28.20
2022-11-15T09:28:06.979Z,28.60
2022-11-15T09:44:25.701Z,31.00
2022-11-15T09:47:19.957Z,29.00
2022-11-15T09:59:08.266Z,24.50
2022-11-15T10:06:04.571Z,26.30
2022-11-15T10:08:49.123Z,31.30
2022-11-15T10:11:38.593Z,25.10
2022-11-15T10:14:19.309Z,26.10
2022-11-15T10:17:00.753Z,29.80
2022-11-15T10:19:36.403Z,28.30
2022-11-15T10:22:14.725Z,31.00
2022-11-15T10:33:36.394Z,28.10
2022-11-15T10:36:08.597Z,29.20
2022-11-15T10:38:50.054Z,28.00
2022-11-15T10:45:53.283Z,27.70
2022-11-15T10:48:22.881Z,30.30
2022-11-15T10:50:50.992Z,32.10
2022-11-15T10:53:31.201Z,31.70
2022-11-15T11:00:21.281Z,32.10
2022-11-15T11:07:22.352Z,28.20
2022-11-15T11:19:01.996Z,34.40
2022-11-15T11:34:50.602Z,35.10
2022-11-15T11:37:58.569Z,39.50
2022-11-15T11:44:53.461Z,33.40
2022-11-15T11:56:20.182Z,36.30
2022-11-15T11:58:48.263Z,36.50
2022-11-15T12:01:44.041Z,32.90
2022-11-15T12:08:53.803Z,33.90
2022-11-15T12:15:57.185Z,36.40
2022-11-15T12:22:47.859Z,35.10
2022-11-15T12:25:26.032Z,31.20
2022-11-15T12:32:31.094Z,35.70
2022-11-15T12:39:18.263Z,36.70
2022-11-15T12:55:41.077Z,36.70
2022-11-15T12:58:28.846Z,35.40
2022-11-15T13:05:19.807Z,31.20
2022-11-15T13:12:28.010Z,31.10
2022-11-15T13:14:59.282Z,33.90
2022-11-15T13:17:35.016Z,37.20
2022-11-15T13:20:12.194Z,35.40
2022-11-15T13:23:02.355Z,34.50
2022-11-15T13:26:00.461Z,36.70
2022-11-15T13:28:32.173Z,41.10
2022-11-15T13:31:19.272Z,40.30
2022-11-15T13:38:29.045Z,36.60
2022-11-15T13:54:48.765Z,40.60
2022-11-15T14:01:23.517Z,35.50
2022-11-15T14:04:00.655Z,38.30
2022-11-15T14:06:30.213Z,36.60
2022-11-15T14:09:17.355Z,36.20
2022-11-15T14:11:54.374Z,34.30
2022-11-15T14:18:53.437Z,31.80
2022-11-15T14:25:56.929Z,36.30
2022-11-15T14:28:22.876Z,36.30
2022-11-15T14:30:51.276Z,41.60
2022-11-15T14:33:20.419Z,37.90
2022-11-15T14:36:54.568Z,42.80
2022-11-15T14:39:20.541Z,36.00
2022-11-15T14:41:46.558Z,33.80
2022-11-15T14:45:15.261Z,37.30
2022-11-15T14:51:59.564Z,43.60
2022-11-15T14:54:25.526Z,36.60
2022-11-15T14:56:51.558Z,37.50
2022-11-15T14:59:17.660Z,37.10
2022-11-15T15:01:43.653Z,37.80
2022-11-15T15:04:11.110Z,33.10
2022-11-15T15:06:37.207Z,31.80
2022-11-15T15:09:04.042Z,36.80
2022-11-15T15:11:32.289Z,37.10
2022-11-15T15:14:00.833Z,33.90
2022-11-15T15:16:27.450Z,37.20
2022-11-15T15:18:53.596Z,37.90
2022-11-15T15:21:25.484Z,40.70
2022-11-15T15:23:54.463Z,39.80
2022-11-15T15:26:21.511Z,42.40
2022-11-15T15:28:49.096Z,39.00
2022-11-15T15:31:15.141Z,43.90
2022-11-15T15:33:41.273Z,36.80
2022-11-15T15:36:14.754Z,36.80
2022-11-15T15:38:41.773Z,36.60
2022-11-15T15:41:12.075Z,39.60
2022-11-15T15:43:38.236Z,39.80
2022-11-15T15:46:05.080Z,39.40
2022-11-15T15:48:31.394Z,40.30
2022-11-15T15:50:57.584Z,44.10
2022-11-15T15:53:23.607Z,36.30
2022-11-15T15:55:49.820Z,43.90
2022-11-15T15:58:15.932Z,43.00
2022-11-15T16:00:41.946Z,44.20
2022-11-15T16:03:07.934Z,47.20
2022-11-15T16:05:33.884Z,42.20
2022-11-15T16:07:59.977Z,46.70
2022-11-15T16:10:29.264Z,45.10
2022-11-15T16:12:56.567Z,44.70
2022-11-15T16:15:24.348Z,48.00
2022-11-15T16:17:52.912Z,40.50
2022-11-15T16:20:50.425Z,44.60
2022-11-15T16:23:23.948Z,42.30
2022-11-15T16:25:52.926Z,42.40
2022-11-15T16:28:24.400Z,42.10
2022-11-15T16:31:00.700Z,42.90
2022-11-15T16:33:26.995Z,41.40
2022-11-15T16:35:52.978Z,41.00
2022-11-15T16:38:18.972Z,46.10
2022-11-15T16:40:45.264Z,38.80
2022-11-15T16:43:11.466Z,41.00
2022-11-15T16:45:37.475Z,38.00
2022-11-15T16:48:03.936Z,46.30
2022-11-15T16:50:34.547Z,39.70
2022-11-15T16:53:01.003Z,42.50
2022-11-15T16:55:29.628Z,46.60
2022-11-15T16:58:00.821Z,48.60
2022-11-15T17:00:27.079Z,47.00
2022-11-15T17:02:53.591Z,48.90
2022-11-15T17:05:23.285Z,44.40
2022-11-15T17:07:53.891Z,44.20
2022-11-15T17:10:24.722Z,41.80
2022-11-15T17:12:51.906Z,43.00
2022-11-15T17:15:18.503Z,45.10
2022-11-15T17:17:44.932Z,48.40
2022-11-15T17:20:15.410Z,40.70
2022-11-15T17:22:41.687Z,41.20
2022-11-15T17:25:08.056Z,36.70
2022-11-15T17:27:34.412Z,35.50
2022-11-15T17:30:00.573Z,33.80
2022-11-15T17:32:26.485Z,34.60
2022-11-15T17:34:52.509Z,31.80
2022-11-15T17:37:18.569Z,34.40
2022-11-15T17:39:44.790Z,32.90
2022-11-15T17:42:10.800Z,33.00
2022-11-15T17:44:36.741Z,37.80
2022-11-15T17:47:02.696Z,33.90
2022-11-15T17:49:28.666Z,31.20
2022-11-15T17:51:54.747Z,33.50
2022-11-15T17:54:20.784Z,35.90
2022-11-15T17:56:46.739Z,34.00
2022-11-15T17:59:15.970Z,31.60
2022-11-15T18:01:44.676Z,31.30
2022-11-15T18:04:10.898Z,33.30
2022-11-15T18:06:37.451Z,32.20
2022-11-15T18:09:04.307Z,30.40
2022-11-15T18:11:32.985Z,33.30
2022-11-15T18:14:01.628Z,27.40
2022-11-15T18:16:30.505Z,33.70
2022-11-15T18:18:57.441Z,31.20
2022-11-15T18:21:26.404Z,29.60
2022-11-15T18:23:54.774Z,29.80
2022-11-15T18:26:26.635Z,33.00
2022-11-15T18:28:55.116Z,30.00
2022-11-15T18:31:24.047Z,30.70
2022-11-15T18:33:51.110Z,33.10
2022-11-15T18:36:23.827Z,32.90
2022-11-15T18:39:04.317Z,33.50
2022-11-15T18:41:32.155Z,30.50
2022-11-15T18:44:01.119Z,28.90
2022-11-15T18:46:30.773Z,25.00
2022-11-15T18:48:59.288Z,26.20
2022-11-15T18:51:29.621Z,24.30
2022-11-15T18:53:59.356Z,23.60
2022-11-15T18:56:27.064Z,26.10
2022-11-15T18:58:55.743Z,25.90
2022-11-15T19:01:24.622Z,26.60
2022-11-15T19:03:54.121Z,25.90
2022-11-15T19:06:28.974Z,26.40
2022-11-15T19:08:57.379Z,29.60
2022-11-15T19:11:28.284Z,29.20
2022-11-15T19:13:56.132Z,25.70
2022-11-15T19:16:23.301Z,27.00
2022-11-15T19:19:00.078Z,27.00
2022-11-15T19:21:27.156Z,27.00
2022-11-15T19:23:53.716Z,29.00
2022-11-15T19:26:24.060Z,22.00
2022-11-15T19:28:55.364Z,25.50
2022-11-15T19:31:23.336Z,25.10
2022-11-15T19:33:50.528Z,22.60
2022-11-15T19:36:22.661Z,21.00
2022-11-15T19:38:49.173Z,20.90
2022-11-15T19:41:17.564Z,18.70
2022-11-15T19:43:44.110Z,20.70
2022-11-15T19:46:11.780Z,19.00
2022-11-15T19:48:38.362Z,20.50
2022-11-15T19:51:07.337Z,17.40
2022-11-15T19:53:35.397Z,18.30
2022-11-15T19:56:05.071Z,18.60
2022-11-15T19:58:31.404Z,16.60
2022-11-15T20:01:05.202Z,20.80
2022-11-15T20:03:32.988Z,19.20
2022-11-15T20:06:11.187Z,17.10
2022-11-15T20:08:37.928Z,23.60
2022-11-15T20:11:04.888Z,12.90
2022-11-15T20:13:31.543Z,18.50
2022-11-15T20:15:58.235Z,18.00
2022-11-15T20:18:26.601Z,21.60
2022-11-15T20:20:55.926Z,22.60
2022-11-15T20:23:22.176Z,23.90
2022-11-15T20:25:48.962Z,22.20
2022-11-15T20:28:18.027Z,24.60
2022-11-15T20:30:45.275Z,28.40
2022-11-15T20:33:12.338Z,21.50
2022-11-15T20:35:38.290Z,18.00
2022-11-15T20:38:06.531Z,19.50
2022-11-15T20:40:32.699Z,19.20
2022-11-15T20:42:58.734Z,18.60
2022-11-15T20:45:24.848Z,20.10
2022-11-15T20:47:54.615Z,18.80
2022-11-15T20:50:40.969Z,21.00
2022-11-15T20:53:07.258Z,21.70
2022-11-15T20:55:33.663Z,20.50
2022-11-15T20:57:59.590Z,18.40
2022-11-15T21:00:25.660Z,15.70
2022-11-15T21:02:52.543Z,19.30
2022-11-15T21:05:18.685Z,17.60
2022-11-15T21:07:44.867Z,17.60
2022-11-15T21:10:29.533Z,17.30
2022-11-15T21:12:55.558Z,17.80
2022-11-15T21:15:21.812Z,18.00
2022-11-15T21:17:47.752Z,18.60
2022-11-15T21:20:16.484Z,17.60
2022-11-15T21:22:42.537Z,18.80
2022-11-15T21:25:08.999Z,17.40
2022-11-15T21:27:35.078Z,16.60
2022-11-15T21:30:01.316Z,18.00
2022-11-15T21:32:28.554Z,14.80
2022-11-15T21:34:54.688Z,13.40
2022-11-15T21:37:20.720Z,16.00
2022-11-15T21:39:46.937Z,11.80
2022-11-15T21:42:12.958Z,12.00
2022-11-15T21:44:39.046Z,13.40
2022-11-15T21:47:06.032Z,12.80
2022-11-15T21:49:32.119Z,12.00
2022-11-15T21:51:58.135Z,10.60
2022-11-15T21:54:24.205Z,11.80
2022-11-15T21:56:50.169Z,11.80
2022-11-15T21:59:16.194Z,12.00
2022-11-15T22:02:00.819Z,12.10
2022-11-15T22:04:26.875Z,14.20
2022-11-15T22:06:52.910Z,14.50
2022-11-15T22:09:19.014Z,13.00
2022-11-15T22:11:45.253Z,12.80
2022-11-15T22:14:11.662Z,15.10
2022-11-15T22:16:38.886Z,14.60
2022-11-15T22:19:04.981Z,16.10
2022-11-15T22:21:30.968Z,14.50
2022-11-15T22:23:58.161Z,15.50
2022-11-15T22:26:24.344Z,15.90
2022-11-15T22:28:51.212Z,16.50
2022-11-15T22:31:17.360Z,18.30
2022-11-15T22:33:43.426Z,15.60
2022-11-15T22:36:11.821Z,18.20
2022-11-15T22:38:37.932Z,14.70
2022-11-15T22:43:30.199Z,16.60
2022-11-15T22:45:58.767Z,16.90
2022-11-15T22:48:31.008Z,18.80
2022-11-15T22:50:57.833Z,17.00
2022-11-15T22:53:24.887Z,17.60
2022-11-15T22:55:52.625Z,18.90
2022-11-15T22:58:19.712Z,20.70
2022-11-15T23:00:48.666Z,21.80
2022-11-15T23:03:16.179Z,20.90
2022-11-15T23:05:42.292Z,23.40
2022-11-15T23:08:08.271Z,20.00
2022-11-15T23:10:52.810Z,21.60
2022-11-15T23:13:18.906Z,21.10
2022-11-15T23:16:07.389Z,18.80
2022-11-15T23:18:42.327Z,20.70
2022-11-15T23:21:13.970Z,25.10
2022-11-15T23:23:40.406Z,22.30
2022-11-15T23:26:07.451Z,20.00
2022-11-15T23:28:34.824Z,23.70
2022-11-15T23:31:24.855Z,20.80
2022-11-15T23:33:56.733Z,19.20
2022-11-15T23:36:23.505Z,21.40
2022-11-15T23:38:49.544Z,22.00
2022-11-15T23:41:15.705Z,24.10
2022-11-15T23:43:41.905Z,23.70
2022-11-15T23:46:07.969Z,22.70
2022-11-15T23:48:34.625Z,20.90
2022-11-15T23:51:00.941Z,21.50
2022-11-15T23:53:27.050Z,19.80
2022-11-15T23:55:58.935Z,17.90
2022-11-15T23:58:25.164Z,20.70
